• Join FlightAware (Why Join?)
  • Login
  • US Flag 
02:46AM EDT


 

Airport Tracker/Info


-or-


 

Live Flight TrackerFlight Track Log ✈ AAL2222 ✈ 06-May-2013 ✈ KMSP - KDFW

Flight Track Log - Related Links

Times and Time Zones

All times are in EDT time to prevent confusion due to time zone crossing. See the AAL2222 flight status page for this flight to view local times or setup timezone preferences in your user account.

Time Position Orientation Groundspeed Altitude Reporting Facility
EDT Latitude Longitude Course Direction KTS MPH feet Rate Location/Type
02:17PM 44.8833 -93.2833 200° South 200 230 2,900  Level Minneapolis TRACON
02:17PM 44.8853 -93.3019 278° West 204 235 3,100 2,880 Climbing Minneapolis Center
02:19PM 44.5685 -93.3409 200° South  Level Estimated
02:19PM 44.7599 -93.3487 200° South  Level Estimated
02:19PM 44.7597 -93.4175 200° South 277 319 9,700  Level Minneapolis Center
02:20PM 44.4639 -93.3804 196° South  Level Estimated
02:21PM 44.3660 -93.4451 205° Southwest  Level FlightAware Approximate
02:21PM 44.6414 -93.4606 200° South  Level Estimated
02:22PM 44.2614 -93.4840 200° South  Level Estimated
02:23PM 44.1631 -93.5601 200° South  Level FlightAware Approximate
02:24PM 44.3647 -93.6714 186° South 384 442 20,300  Level Minneapolis Center
02:25PM 44.2686 -93.7494 210° Southwest 399 459 22,300 1,980 Climbing Minneapolis Center
02:26PM 44.1500 -93.8439 210° Southwest 409 471 24,900 2,040 Climbing Minneapolis Center
02:27PM 44.0492 -93.9253 210° Southwest 418 481 26,600 1,680 Climbing Minneapolis Center
02:28PM 43.8879 -93.7312 200° South  Level Estimated
02:28PM 43.9475 -94.0067 210° Southwest 424 488 28,500  Level Minneapolis Center
02:29PM 43.7772 -93.7463 186° South  Level FlightAware Approximate
02:30PM 43.7941 -94.0561 193° South  Level Estimated
02:30PM 43.7269 -94.1817 193° South 416 479 32,000  Level Minneapolis Center
02:32PM 43.5756 -94.2100 188° South  Level FlightAware Approximate
02:32PM 43.5192 -94.2350 188° South 405 466 34,200  Level Minneapolis Center
02:33PM 43.3878 -94.2428 182° South 400 460 35,300 780 Climbing Minneapolis Center
02:34PM 43.2850 -94.2506 183° South 399 459 35,900 300 Climbing Minneapolis Center
02:35PM 43.1508 -94.2592 183° South 401 461 36,000  Climbing Minneapolis Center
02:36PM 43.0392 -94.2678 183° South 402 463 36,000  Level Minneapolis Center
02:37PM 42.9228 -94.2756 183° South 403 464 36,000  Level Minneapolis Center
02:38PM 42.8125 -94.2836 183° South 402 463 36,000  Level Minneapolis Center
02:39PM 42.7017 -94.2894 182° South 403 464 36,000  Level Minneapolis Center
02:41PM 42.5868 -94.3309 195° South  Level FlightAware Approximate
02:42PM 42.4828 -94.3297 195° South 405 466 36,000  Level Minneapolis Center
02:44PM 42.1994 -94.3939 190° South 407 468 36,000  Level Kansas City Center
02:45PM 42.1186 -94.4164 192° South 409 471 36,000  Level Minneapolis Center
02:46PM 42.0050 -94.4439 190° South 412 474 36,000  Level Minneapolis Center
02:47PM 41.8922 -94.4708 190° South 410 472 36,000  Level Minneapolis Center
02:48PM 41.7783 -94.4992 191° South 413 475 36,000  Level Minneapolis Center
02:49PM 41.6636 -94.5261 190° South 415 478 36,000  Level Minneapolis Center
02:50PM 41.5503 -94.5528 190° South 413 475 36,000  Level Minneapolis Center
02:51PM 41.4128 -94.5878 191° South 415 478 36,000  Level Minneapolis Center
02:52PM 41.3000 -94.6133 190° South 413 475 36,000  Level Minneapolis Center
02:53PM 41.1839 -94.6408 190° South 416 479 36,000  Level Minneapolis Center
02:54PM 41.0661 -94.6692 190° South 423 487 36,000  Level Minneapolis Center
02:56PM 40.9325 -94.7129 194° South  Level FlightAware Approximate
02:56PM 40.8281 -94.7258 194° South 431 496 36,000  Level Minneapolis Center
02:57PM 40.7097 -94.7528 190° South 431 496 36,000  Level Minneapolis Center
02:58PM 40.5672 -94.7869 190° South 431 496 36,000  Level Minneapolis Center
02:59PM 40.4475 -94.8142 190° South 435 501 36,000  Level Minneapolis Center
03:00PM 40.3281 -94.8425 190° South 434 499 36,000  Level Minneapolis Center
03:01PM 40.2089 -94.8694 190° South 433 498 36,000  Level Minneapolis Center
03:02PM 40.1139 -94.8906 190° South 433 498 36,000  Level Minneapolis Center
03:03PM 39.9700 -94.9250 190° South 435 501 36,000  Level Minneapolis Center
03:04PM 39.8247 -94.9600 190° South 440 506 36,000  Level Minneapolis Center
03:05PM 39.7919 -94.9661 188° South 444 511 36,000  Level Kansas City Center
03:06PM 39.6753 -94.9939 190° South 445 512 36,000  Level Kansas City Center
03:07PM 39.5383 -95.0264 190° South 446 513 36,000  Level Kansas City Center
03:08PM 39.4214 -95.0553 191° South 444 511 36,000  Level Kansas City Center
03:09PM 39.2822 -95.0869 190° South 448 516 36,000  Level Kansas City Center
03:10PM 39.1606 -95.1158 190° South 452 520 36,000  Level Kansas City Center
03:11PM 39.0247 -95.1486 191° South 451 519 36,000  Level Kansas City Center
03:13PM 38.7808 -95.2056 190° South 456 525 36,000  Level Kansas City Center
03:14PM 38.6403 -95.2386 190° South 459 528 36,000  Level Kansas City Center
03:15PM 38.5206 -95.2667 190° South 456 525 36,000  Level Kansas City Center
03:17PM 38.3471 -95.3042 190° South  Level FlightAware Approximate
03:17PM 38.2628 -95.3242 190° South 453 521 36,000  Level Kansas City Center
03:18PM 38.1428 -95.3544 191° South 457 526 36,000  Level Kansas City Center
03:19PM 38.0031 -95.3864 190° South 457 526 36,000  Level Kansas City Center
03:21PM 37.8444 -95.4159 188° South  Level FlightAware Approximate
03:22PM 37.6111 -95.4761 206° Southwest 452 520 36,000  Level Kansas City Center
03:23PM 37.5047 -95.5464 208° Southwest 438 504 36,000  Level Kansas City Center
03:24PM 37.3972 -95.6144 207° Southwest 436 502 36,000  Level Kansas City Center
03:25PM 37.2894 -95.6844 206° Southwest 435 501 36,000  Level Kansas City Center
03:26PM 37.2792 -95.7165 206° Southwest  Level FlightAware Approximate
03:27PM 37.0711 -95.8183 206° Southwest 438 504 36,000  Level Kansas City Center
03:28PM 37.1297 -95.8079 206° Southwest  Level FlightAware Approximate
03:29PM 36.8336 -95.9658 206° Southwest 434 499 36,000  Level Kansas City Center
03:31PM 36.7234 -96.0343 206° Southwest  Level FlightAware Approximate
03:33PM 36.5746 -96.1439 206° Southwest  Level FlightAware Approximate
03:33PM 36.5648 -96.1349 207° Southwest  Level FlightAware Approximate
03:34PM 36.3842 -96.2392 207° Southwest 429 494 36,000  Level Kansas City Center
03:35PM 36.2778 -96.3025 206° Southwest 426 490 36,000  Level Kansas City Center
03:36PM 36.1722 -96.3669 206° Southwest 425 489 36,000  Level Kansas City Center
03:38PM 35.9472 -96.5022 206° Southwest 425 489 36,000  Level Kansas City Center
03:39PM 35.8400 -96.5661 206° Southwest 426 490 36,000  Level Kansas City Center
03:41PM 35.6272 -96.6933 206° Southwest 426 490 36,000  Level Fort Worth Center
03:42PM 35.5131 -96.7608 206° Southwest 426 490 36,000  Level Fort Worth Center
03:43PM 35.4069 -96.8228 205° Southwest 421 484 36,000  Level Fort Worth Center
03:45PM 35.1969 -96.9461 206° Southwest 421 484 36,000  Level Fort Worth Center
03:46PM 35.0947 -97.0100 207° Southwest 421 484 36,000 -120 Level Fort Worth Center
03:47PM 34.9886 -97.0714 205° Southwest 421 484 35,800 -1,320 Descending Fort Worth Center
03:49PM 34.8319 -97.1496 206° Southwest  Level FlightAware Approximate
03:50PM 34.6553 -97.2642 201° Southwest 422 486 30,500  Level Kansas City Center
03:51PM 34.5636 -97.3203 207° Southwest 426 490 28,800 -2,340 Descending Fort Worth Center
03:52PM 34.4531 -97.3833 205° Southwest 432 497 26,600 -1,620 Descending Fort Worth Center
03:54PM 34.2317 -97.5039 204° Southwest 442 509 24,000 -1,320 Descending Fort Worth Center
03:55PM 34.1358 -97.5364 196° South 418 481 22,800 -1,200 Descending Fort Worth Center
03:56PM 34.1176 -97.5329 201° Southwest  Level FlightAware Approximate
03:56PM 34.0250 -97.5514 186° South 405 466 21,600  Level Fort Worth Center
03:57PM 33.9103 -97.5661 186° South 386 444 19,500 -1,860 Descending Fort Worth Center
03:59PM 33.7167 -97.5833 184° South 382 440 16,400 -1,740 Descending Dallas / Fort Worth TRACON
04:00PM 33.6056 -97.6106 192° South 386 444 14,400 -1,860 Descending Fort Worth Center
04:01PM 33.4969 -97.6278 188° South 372 428 12,400 -1,560 Descending Fort Worth Center
04:02PM 33.4008 -97.6425 187° South 361 415 11,300 -720 Descending Fort Worth Center
04:03PM 33.3258 -97.5775 144° Southeast 312 359 11,000 -120 Descending Fort Worth Center
04:05PM 33.2050 -97.4358 136° Southeast 306 352 11,000  Level Fort Worth Center
04:06PM 33.1422 -97.3639 136° Southeast 301 346 11,000  Level Fort Worth Center
04:07PM 33.0817 -97.2969 137° Southeast 301 346 11,000  Level Fort Worth Center
04:08PM 33.0294 -97.2325 134° Southeast 301 346 11,000 -600 Level Fort Worth Center
04:09PM 32.9647 -97.1683 140° Southeast 282 325 9,800 -1,200 Descending Fort Worth Center
04:10PM 32.9019 -97.1758 186° South 252 290 8,600 -1,320 Descending Fort Worth Center
04:12PM 32.7642 -97.1714 178° South 252 290 6,000 -1,380 Descending Fort Worth Center
04:13PM 32.6911 -97.1689 178° South 252 290 4,600 -960 Descending Fort Worth Center
04:14PM 32.6667 -97.0833 109° East 217 250 3,900 -480 Descending Dallas / Fort Worth TRACON
04:15PM 32.7333 -97.0500 23° Northeast 217 250 3,500 -840 Descending Dallas / Fort Worth TRACON
04:17PM 32.8333 -97.0500 360° North 151 174 1,400 -1,080 Descending Dallas / Fort Worth TRACON